Airfield :
LOGIN :

Register | Disclaimer

   EN    FR    IT 

 










Legend :    VFR   Marginal VFR   IFR   Intensive IFR   Very Intensive IFR
Visi :
Ceiling :
>= 8 km
>= 3000ft
5 to 8 km
1000 to 3000 ft
1500m to 5 km
500 to 1000 ft
800 to 1500m
200 to 500 ft
< 800m
< 200 ft
Symbols :   Thunderstorms  Fog  Heavy snow  Heavy precipitations  Wind > 20 kt
SIGMETs :     Misc.  Thunderstorms  Icing  Turbulence  Mountain Waves  Volcanic Ashes






- Airport Elevation : 32 ft
- IATA code : LKZ


EGUL - RAF Lakenheath

CURRENT METAR :
  • 011420Z AUTO 06006KT 9999 SCT023 SCT036 16/07 A2987 RMK AO2 VIS 0800 RWY06 RAE13DZB13E20DZB20 SLP118 $

EXPIRED METARs :
  • 011401Z AUTO 02006KT 9999 RA BKN025 16/06 A2987 RMK AO2 VIS 0800 RWY06 CIG 022V028 BKN V SCT SLP118 $
  • 011356Z AUTO 01007KT 9999 -RA SCT024 16/05 A2987 RMK AO2 VIS 0800 RWY06 DZE1257RAB1257E15DZB15E21RAB21E33DZB33E37DZB37E37DZB51E55RAB55 SLP118 P0001 T01620052 $
  • 011337Z AUTO 30004KT 9999 BKN024 17/06 A2986 RMK AO2 VIS 0800 RWY06 DZE1257RAB1257E15DZB15E21RAB21E33DZB33E37DZB37 SLP115 $
  • 011316Z AUTO 00000KT 9999 -DZ BKN026 17/04 A2986 RMK AO2 VIS 0800 RWY06 DZE1257RAB1257E15DZB15 CIG 026V037 SLP115 $
  • 011256Z AUTO 01003KT 9999 -DZ SCT036 17/02 A2985 RMK AO2 VIS 0800 RWY06 DZB55 SLP112 P0000 T01700018 $
  • 011226Z AUTO 00000KT 9999 SCT026 BKN060 17/02 A2984 RMK AO2 VIS 1000 RWY06 SLP108 $
  • 011156Z AUTO 08005KT 9999 SCT020 OVC027 17/03 A2984 RMK AO2 VIS 1000 RWY06 CIG 019V027 SLP108 60004 70004 T01710030 10171 20138 52008 $
  • 011146Z AUTO 06005KT 9999 BKN019 OVC027 17/04 A2984 RMK AO2 VIS 1000 RWY06 CIG 018V027 SLP108 $
  • 011136Z AUTO 07005KT 9999 BKN018 BKN026 17/04 A2984 RMK AO2 VIS 0800 RWY06 CIG 018V026 BKN018 V SCT SLP108 $

Expired Forecast.



MET'MAP, your aeronautical weather chart ! - Copyright ORBIFLY December 2007 - Disclaimer

ORBIFLY MET'MAP TEAM :

Programming & Development : Alexandra Zaïnal
Concept & original design : Baudouin d'Aumeries
Assistance for programming : Marc-Olivier Méhu
Technical & hardware support : Manuel Goepfert

Contact : metmap@orbifly.com




SOURCES & CREDITS :

   NOAA